Time;durP1;ratioP1;P1;durP2;ratioP2;P2;SDS_P1;SDS_P2;PMS_P1;PMS_P2;Temp;Humidity;BMP_temperature;BMP_pressure;BME280_temperature;BME280_humidity;BME280_pressure;Samples;Min_cycle;Max_cycle;Signal;HPM_P1;HPM_P2
2022/11/25 00:00:52;;;;;;;16.58;2.95;;;;;;;;;;4970532;28;20275;-65
2022/11/25 00:03:18;;;;;;;15.77;3.10;;;;;;;;;;4959967;28;20260;-64
2022/11/25 00:05:43;;;;;;;15.82;2.70;;;;;;;;;;4958060;28;20264;-65
2022/11/25 00:08:09;;;;;;;11.30;2.75;;;;;;;;;;4954708;28;20217;-65
2022/11/25 00:10:34;;;;;;;13.07;2.30;;;;;;;;;;4956473;28;20308;-65
2022/11/25 00:12:59;;;;;;;12.13;2.67;;;;;;;;;;4963447;28;20214;-65
2022/11/25 00:15:25;;;;;;;11.90;2.30;;;;;;;;;;4964988;28;20352;-64
2022/11/25 00:17:50;;;;;;;12.02;2.75;;;;;;;;;;4966120;28;20712;-66
2022/11/25 00:20:15;;;;;;;12.60;2.63;;;;;;;;;;4971646;28;20213;-65
2022/11/25 00:22:41;;;;;;;14.55;3.25;;;;;;;;;;4981165;28;20237;-65
2022/11/25 00:25:06;;;;;;;14.10;2.45;;;;;;;;;;4965544;28;20268;-65
2022/11/25 00:27:31;;;;;;;11.68;2.45;;;;;;;;;;4978892;28;20224;-65
2022/11/25 00:29:57;;;;;;;15.27;2.75;;;;;;;;;;4977608;28;20692;-65
2022/11/25 00:32:22;;;;;;;21.13;3.90;;;;;;;;;;4976504;28;20533;-66
2022/11/25 00:34:47;;;;;;;13.27;2.70;;;;;;;;;;4983958;28;20592;-66
2022/11/25 00:37:13;;;;;;;16.42;2.78;;;;;;;;;;4966170;28;20206;-66
2022/11/25 00:39:38;;;;;;;12.55;3.10;;;;;;;;;;4979037;28;20272;-66
2022/11/25 00:44:47;;;;;;;12.85;2.50;;;;;;;;;;4985246;28;20224;-66
2022/11/25 00:47:13;;;;;;;14.70;2.83;;;;;;;;;;4967555;28;20624;-65
2022/11/25 00:49:39;;;;;;;12.93;2.83;;;;;;;;;;4977838;28;20560;-66
2022/11/25 00:52:05;;;;;;;12.25;2.97;;;;;;;;;;4964554;28;20272;-66
2022/11/25 00:54:30;;;;;;;14.65;3.17;;;;;;;;;;4957815;28;20597;-66
2022/11/25 00:56:56;;;;;;;12.82;2.80;;;;;;;;;;4964238;28;20653;-66
2022/11/25 00:59:21;;;;;;;15.85;2.88;;;;;;;;;;4983651;28;20229;-66
2022/11/25 01:01:46;;;;;;;14.48;2.75;;;;;;;;;;4985419;28;20237;-66
2022/11/25 01:04:12;;;;;;;10.55;2.50;;;;;;;;;;4984349;28;20241;-65
2022/11/25 01:06:37;;;;;;;14.88;3.20;;;;;;;;;;4983460;28;20276;-65
2022/11/25 01:09:03;;;;;;;12.77;2.80;;;;;;;;;;4984655;28;20268;-65
2022/11/25 01:11:28;;;;;;;14.38;2.92;;;;;;;;;;4981762;28;20225;-66
2022/11/25 01:13:55;;;;;;;11.30;2.53;;;;;;;;;;4976253;28;20221;-65
2022/11/25 01:16:20;;;;;;;14.90;2.72;;;;;;;;;;4963082;28;20292;-66
2022/11/25 01:18:46;;;;;;;14.70;2.83;;;;;;;;;;4979819;28;20267;-66
2022/11/25 01:21:12;;;;;;;14.63;2.92;;;;;;;;;;4982161;28;20228;-65
2022/11/25 01:23:37;;;;;;;11.73;2.88;;;;;;;;;;4985125;28;20332;-66
2022/11/25 01:26:03;;;;;;;11.75;3.03;;;;;;;;;;4982346;28;20321;-66
2022/11/25 01:28:28;;;;;;;12.52;2.80;;;;;;;;;;4982894;28;20673;-66
2022/11/25 01:31:00;;;;;;;10.15;2.35;;;;;;;;;;4984841;28;20209;-66
2022/11/25 01:33:26;;;;;;;12.32;2.58;;;;;;;;;;5002791;28;20847;-65
2022/11/25 01:35:51;;;;;;;10.40;2.33;;;;;;;;;;4986118;28;20224;-66
2022/11/25 01:38:16;;;;;;;15.52;2.72;;;;;;;;;;4976660;28;20233;-65
2022/11/25 01:40:41;;;;;;;13.60;2.63;;;;;;;;;;4977506;28;20248;-66
2022/11/25 01:43:12;;;;;;;13.18;2.35;;;;;;;;;;4983735;28;20379;-66
2022/11/25 01:45:37;;;;;;;13.52;2.65;;;;;;;;;;4998567;28;20229;-66
2022/11/25 01:48:13;;;;;;;15.55;2.78;;;;;;;;;;4986015;28;20247;-66
2022/11/25 01:50:39;;;;;;;13.25;2.70;;;;;;;;;;4992665;28;20232;-65
2022/11/25 01:53:04;;;;;;;8.55;2.22;;;;;;;;;;4996697;28;20236;-66
2022/11/25 01:55:30;;;;;;;13.45;2.90;;;;;;;;;;4993606;28;20247;-66
2022/11/25 01:57:57;;;;;;;14.50;2.67;;;;;;;;;;4992970;28;20296;-65
2022/11/25 02:00:22;;;;;;;11.15;2.50;;;;;;;;;;4993823;28;20237;-65
2022/11/25 02:02:48;;;;;;;11.40;2.63;;;;;;;;;;4991876;28;20236;-65
2022/11/25 02:05:14;;;;;;;15.63;3.30;;;;;;;;;;4991926;28;20586;-65
2022/11/25 02:07:40;;;;;;;13.73;2.85;;;;;;;;;;4993128;28;20220;-65
2022/11/25 02:10:07;;;;;;;11.68;2.60;;;;;;;;;;4991734;28;20211;-66
2022/11/25 02:12:33;;;;;;;15.60;2.72;;;;;;;;;;4992606;28;20233;-66
2022/11/25 02:14:58;;;;;;;13.52;2.80;;;;;;;;;;4992835;28;20632;-66
2022/11/25 02:17:23;;;;;;;13.25;2.90;;;;;;;;;;4992761;28;20221;-66
2022/11/25 02:19:57;;;;;;;11.70;2.40;;;;;;;;;;5009159;28;20217;-67
2022/11/25 02:22:26;;;;;;;16.95;3.10;;;;;;;;;;4992257;28;20228;-66
2022/11/25 02:24:53;;;;;;;13.75;3.15;;;;;;;;;;4991929;28;20228;-66
2022/11/25 02:27:18;;;;;;;12.75;2.70;;;;;;;;;;4992107;28;20284;-66
2022/11/25 02:29:43;;;;;;;15.90;2.70;;;;;;;;;;4993832;28;20736;-66
2022/11/25 02:32:09;;;;;;;14.07;3.00;;;;;;;;;;4992673;28;20224;-66
2022/11/25 02:34:34;;;;;;;14.88;2.90;;;;;;;;;;4993542;28;20228;-66
2022/11/25 02:36:59;;;;;;;13.85;2.55;;;;;;;;;;4993077;28;20213;-66
2022/11/25 02:39:24;;;;;;;15.75;2.80;;;;;;;;;;4985912;28;20686;-66
2022/11/25 02:41:52;;;;;;;13.32;3.30;;;;;;;;;;4973924;28;20261;-66
2022/11/25 02:44:17;;;;;;;14.55;3.13;;;;;;;;;;4973518;28;20217;-66
2022/11/25 02:46:42;;;;;;;12.85;2.42;;;;;;;;;;4964318;28;20221;-66
2022/11/25 02:49:07;;;;;;;12.27;3.05;;;;;;;;;;4982792;28;20249;-65
2022/11/25 02:51:33;;;;;;;14.73;2.60;;;;;;;;;;4965596;28;20222;-65
2022/11/25 02:53:59;;;;;;;14.55;2.78;;;;;;;;;;4960037;28;20337;-65
2022/11/25 02:56:25;;;;;;;14.38;3.05;;;;;;;;;;4951344;28;20222;-65
2022/11/25 02:58:51;;;;;;;10.05;2.60;;;;;;;;;;4971713;28;20229;-65
2022/11/25 03:01:16;;;;;;;17.42;2.78;;;;;;;;;;4979301;28;20233;-65
2022/11/25 03:03:41;;;;;;;14.43;2.88;;;;;;;;;;4983223;28;20221;-65
2022/11/25 03:06:06;;;;;;;17.27;3.28;;;;;;;;;;4981967;28;20212;-65
2022/11/25 03:08:32;;;;;;;11.48;2.90;;;;;;;;;;4981297;28;20304;-66
2022/11/25 03:10:57;;;;;;;14.40;2.72;;;;;;;;;;4982853;28;20688;-65
2022/11/25 03:13:22;;;;;;;19.20;3.42;;;;;;;;;;4981319;28;20217;-66
2022/11/25 03:15:48;;;;;;;15.10;3.75;;;;;;;;;;4972019;28;20220;-66
2022/11/25 03:18:13;;;;;;;16.98;3.28;;;;;;;;;;4955924;28;20214;-66
2022/11/25 03:20:38;;;;;;;14.80;3.00;;;;;;;;;;4955025;28;20225;-66
2022/11/25 03:23:03;;;;;;;12.60;2.70;;;;;;;;;;4957876;28;20213;-66
2022/11/25 03:25:29;;;;;;;15.43;2.80;;;;;;;;;;4963507;28;20311;-67
2022/11/25 03:27:54;;;;;;;14.15;2.47;;;;;;;;;;4980241;28;20570;-66
2022/11/25 03:30:21;;;;;;;10.32;2.20;;;;;;;;;;4982024;28;20372;-66
2022/11/25 03:32:46;;;;;;;11.77;2.78;;;;;;;;;;4982904;28;20570;-66
2022/11/25 03:35:11;;;;;;;14.77;2.72;;;;;;;;;;4977719;28;20677;-66
2022/11/25 03:37:37;;;;;;;12.80;2.50;;;;;;;;;;4980961;28;20244;-66
2022/11/25 03:40:03;;;;;;;14.00;2.65;;;;;;;;;;4965844;28;20221;-66
2022/11/25 03:42:28;;;;;;;11.57;2.42;;;;;;;;;;4971743;28;20411;-66
2022/11/25 03:44:53;;;;;;;14.40;2.65;;;;;;;;;;4974081;28;20221;-66
2022/11/25 03:47:18;;;;;;;15.38;3.17;;;;;;;;;;4994652;28;20279;-66
2022/11/25 03:49:44;;;;;;;11.07;3.10;;;;;;;;;;4993035;28;20228;-67
2022/11/25 03:52:09;;;;;;;15.90;3.00;;;;;;;;;;5019232;28;20236;-66
2022/11/25 03:54:34;;;;;;;12.32;2.85;;;;;;;;;;4976940;28;20218;-66
2022/11/25 03:56:59;;;;;;;11.55;2.50;;;;;;;;;;4976315;28;20626;-67
2022/11/25 03:59:25;;;;;;;10.93;2.60;;;;;;;;;;4976250;28;20230;-66
2022/11/25 04:01:50;;;;;;;15.52;3.10;;;;;;;;;;4976844;28;20276;-66
2022/11/25 04:04:15;;;;;;;13.10;3.00;;;;;;;;;;4976187;28;20224;-67
2022/11/25 04:06:40;;;;;;;12.57;2.95;;;;;;;;;;4977005;28;20689;-67
2022/11/25 04:09:06;;;;;;;11.43;2.38;;;;;;;;;;4975546;28;20226;-67
2022/11/25 04:14:15;;;;;;;14.15;2.80;;;;;;;;;;4976170;28;20297;-66
2022/11/25 04:16:40;;;;;;;12.68;2.97;;;;;;;;;;5000255;28;20672;-67
2022/11/25 04:19:06;;;;;;;11.10;2.70;;;;;;;;;;4995762;28;20266;-66
2022/11/25 04:21:31;;;;;;;13.45;3.17;;;;;;;;;;4996124;28;20221;-66
2022/11/25 04:23:56;;;;;;;15.75;3.10;;;;;;;;;;4995474;28;20244;-66
2022/11/25 04:26:21;;;;;;;11.07;3.30;;;;;;;;;;4995370;28;20665;-66
2022/11/25 04:28:47;;;;;;;14.50;2.95;;;;;;;;;;4994747;28;20209;-66
2022/11/25 04:31:12;;;;;;;14.95;4.10;;;;;;;;;;4994586;28;20221;-66
2022/11/25 04:33:37;;;;;;;15.40;3.80;;;;;;;;;;4996124;28;20242;-66
2022/11/25 04:36:03;;;;;;;20.55;3.78;;;;;;;;;;4984715;28;20604;-66
2022/11/25 04:38:28;;;;;;;13.60;3.53;;;;;;;;;;4976100;28;20218;-66
2022/11/25 04:40:53;;;;;;;15.05;3.40;;;;;;;;;;5007188;28;20258;-66
2022/11/25 04:43:19;;;;;;;17.42;3.83;;;;;;;;;;5014925;28;20223;-66
2022/11/25 04:45:45;;;;;;;12.43;3.13;;;;;;;;;;5007316;28;20221;-66
2022/11/25 04:48:10;;;;;;;17.38;3.53;;;;;;;;;;4995315;28;20213;-66
2022/11/25 04:50:35;;;;;;;13.50;3.70;;;;;;;;;;5001947;28;20228;-66
2022/11/25 04:53:01;;;;;;;13.98;3.78;;;;;;;;;;5009877;28;20250;-66
2022/11/25 04:55:26;;;;;;;18.65;3.72;;;;;;;;;;5008950;28;20215;-66
2022/11/25 04:57:51;;;;;;;14.45;3.63;;;;;;;;;;5010823;28;20635;-66
2022/11/25 05:00:17;;;;;;;15.50;4.80;;;;;;;;;;4993828;28;20240;-66
2022/11/25 05:02:42;;;;;;;15.60;4.40;;;;;;;;;;4994584;28;20308;-66
2022/11/25 05:05:08;;;;;;;16.00;4.05;;;;;;;;;;4994801;28;20700;-66
2022/11/25 05:07:33;;;;;;;14.48;4.38;;;;;;;;;;4994802;28;20219;-66
2022/11/25 05:09:58;;;;;;;17.55;4.63;;;;;;;;;;4995379;28;20243;-67
2022/11/25 05:12:24;;;;;;;14.75;4.45;;;;;;;;;;4994086;28;20224;-67
2022/11/25 05:14:49;;;;;;;15.40;4.75;;;;;;;;;;4995295;28;20213;-67
2022/11/25 05:17:16;;;;;;;18.65;4.05;;;;;;;;;;5013985;28;20271;-66
2022/11/25 05:19:41;;;;;;;12.90;3.72;;;;;;;;;;5012904;28;20300;-67
2022/11/25 05:22:10;;;;;;;18.95;4.07;;;;;;;;;;5014066;28;20315;-67
2022/11/25 05:24:35;;;;;;;14.10;3.85;;;;;;;;;;5013495;28;20735;-67
2022/11/25 05:27:01;;;;;;;14.85;3.55;;;;;;;;;;5013295;28;20307;-67
2022/11/25 05:29:26;;;;;;;14.13;3.83;;;;;;;;;;5014706;28;20235;-67
2022/11/25 05:31:51;;;;;;;13.68;3.25;;;;;;;;;;5014116;28;20220;-67
2022/11/25 05:34:16;;;;;;;15.75;3.83;;;;;;;;;;5013476;28;20220;-68
2022/11/25 05:36:42;;;;;;;14.38;3.55;;;;;;;;;;5014476;28;20205;-68
2022/11/25 05:39:07;;;;;;;13.32;3.40;;;;;;;;;;5012064;28;20220;-67
2022/11/25 05:41:32;;;;;;;16.10;3.22;;;;;;;;;;4994037;28;20239;-67
2022/11/25 05:43:58;;;;;;;13.85;3.05;;;;;;;;;;4983961;28;20232;-68
2022/11/25 05:46:23;;;;;;;12.63;3.17;;;;;;;;;;4983176;28;20224;-66
2022/11/25 05:48:51;;;;;;;11.25;2.75;;;;;;;;;;4987020;28;20579;-69
2022/11/25 05:51:16;;;;;;;16.02;3.70;;;;;;;;;;4996493;28;20894;-68
2022/11/25 05:53:41;;;;;;;14.43;3.25;;;;;;;;;;5018761;28;20244;-69
2022/11/25 05:56:08;;;;;;;15.07;3.45;;;;;;;;;;5002792;28;20208;-67
2022/11/25 05:58:33;;;;;;;16.48;3.42;;;;;;;;;;4996431;28;20251;-67
2022/11/25 06:00:59;;;;;;;19.35;3.83;;;;;;;;;;4973617;28;20776;-68
2022/11/25 06:03:24;;;;;;;14.85;3.17;;;;;;;;;;4974954;28;20324;-67
2022/11/25 06:05:50;;;;;;;14.75;3.22;;;;;;;;;;4982062;28;20229;-67
2022/11/25 06:08:15;;;;;;;10.02;3.45;;;;;;;;;;4988922;28;20248;-67
2022/11/25 06:10:41;;;;;;;14.70;3.85;;;;;;;;;;5001265;28;20630;-67
2022/11/25 06:13:06;;;;;;;15.35;3.90;;;;;;;;;;5002837;28;20227;-67
2022/11/25 06:15:32;;;;;;;11.73;3.50;;;;;;;;;;4995770;28;20220;-67
2022/11/25 06:17:57;;;;;;;13.85;3.60;;;;;;;;;;4986298;28;20240;-67
2022/11/25 06:20:22;;;;;;;13.07;3.70;;;;;;;;;;4980192;28;20331;-67
2022/11/25 06:22:47;;;;;;;13.70;3.88;;;;;;;;;;4976015;28;20510;-67
2022/11/25 06:25:13;;;;;;;15.07;4.32;;;;;;;;;;4975049;28;20221;-68
2022/11/25 06:27:38;;;;;;;17.33;6.50;;;;;;;;;;4978931;28;20216;-67
2022/11/25 06:30:03;;;;;;;14.93;5.60;;;;;;;;;;4982409;28;20217;-67
2022/11/25 06:32:29;;;;;;;15.55;3.60;;;;;;;;;;5002625;28;20238;-67
2022/11/25 06:34:54;;;;;;;11.63;3.25;;;;;;;;;;5003327;28;20216;-68
2022/11/25 06:37:19;;;;;;;13.68;3.90;;;;;;;;;;5005576;28;20240;-67
2022/11/25 06:39:45;;;;;;;11.52;3.30;;;;;;;;;;5004449;28;20208;-67
2022/11/25 06:42:10;;;;;;;11.43;3.78;;;;;;;;;;5012583;28;20232;-65
2022/11/25 06:44:35;;;;;;;11.10;2.97;;;;;;;;;;5001743;28;20418;-66
2022/11/25 06:47:01;;;;;;;11.85;2.97;;;;;;;;;;4996459;28;20213;-65
2022/11/25 06:49:28;;;;;;;13.55;2.78;;;;;;;;;;4993301;28;20217;-65
2022/11/25 06:51:53;;;;;;;10.50;3.10;;;;;;;;;;4992438;28;20432;-66
2022/11/25 06:54:18;;;;;;;9.65;2.33;;;;;;;;;;4999715;28;20274;-67
2022/11/25 06:56:43;;;;;;;9.52;2.67;;;;;;;;;;4992577;28;20201;-66
2022/11/25 06:59:09;;;;;;;12.40;2.95;;;;;;;;;;4992517;28;20232;-66
2022/11/25 07:01:34;;;;;;;7.85;2.25;;;;;;;;;;5003468;28;20223;-66
2022/11/25 07:04:00;;;;;;;8.18;2.28;;;;;;;;;;5001641;28;20217;-66
2022/11/25 07:06:25;;;;;;;11.02;2.78;;;;;;;;;;5001525;28;20217;-66
2022/11/25 07:08:51;;;;;;;10.07;2.45;;;;;;;;;;5003178;28;20216;-64
2022/11/25 07:11:23;;;;;;;12.20;2.60;;;;;;;;;;5000927;28;20209;-65
2022/11/25 07:13:50;;;;;;;7.95;2.35;;;;;;;;;;4995241;28;20236;-64
2022/11/25 07:16:15;;;;;;;12.55;2.55;;;;;;;;;;4992065;28;20271;-65
2022/11/25 07:18:41;;;;;;;8.65;2.58;;;;;;;;;;4992184;28;20713;-65
2022/11/25 07:21:10;;;;;;;10.85;2.50;;;;;;;;;;4991240;28;20213;-64
2022/11/25 07:23:36;;;;;;;9.13;2.80;;;;;;;;;;4990279;28;20479;-65
2022/11/25 07:26:02;;;;;;;9.38;2.63;;;;;;;;;;4990948;28;20217;-66
2022/11/25 07:28:27;;;;;;;9.93;2.00;;;;;;;;;;4989582;28;20228;-66
2022/11/25 07:30:52;;;;;;;10.48;2.67;;;;;;;;;;4999564;28;20205;-68
2022/11/25 07:33:18;;;;;;;10.88;2.40;;;;;;;;;;4998457;28;20205;-67
2022/11/25 07:35:43;;;;;;;8.93;2.20;;;;;;;;;;5003226;28;20258;-67
2022/11/25 07:38:08;;;;;;;7.43;2.70;;;;;;;;;;4999633;28;20559;-67
2022/11/25 07:40:33;;;;;;;8.40;2.22;;;;;;;;;;4997693;28;20222;-66
2022/11/25 07:42:59;;;;;;;10.98;2.90;;;;;;;;;;5000036;28;20599;-66
2022/11/25 07:45:24;;;;;;;7.32;2.20;;;;;;;;;;5002175;28;20255;-66
2022/11/25 07:47:49;;;;;;;7.82;2.60;;;;;;;;;;5000733;28;20208;-66
2022/11/25 07:50:15;;;;;;;9.52;2.90;;;;;;;;;;5000576;28;20200;-66
2022/11/25 07:52:40;;;;;;;8.57;2.25;;;;;;;;;;5001394;28;20571;-67
2022/11/25 07:55:06;;;;;;;8.77;2.15;;;;;;;;;;5000970;28;20205;-67
2022/11/25 07:57:31;;;;;;;8.70;1.90;;;;;;;;;;5002852;28;20225;-66
2022/11/25 07:59:56;;;;;;;7.45;2.20;;;;;;;;;;5001619;28;20294;-67
2022/11/25 08:02:22;;;;;;;5.82;1.80;;;;;;;;;;5008770;28;20711;-66
2022/11/25 08:04:47;;;;;;;6.95;2.15;;;;;;;;;;5011574;28;20212;-67
2022/11/25 08:07:12;;;;;;;8.85;2.40;;;;;;;;;;5011892;28;20625;-67
2022/11/25 08:09:37;;;;;;;8.35;2.00;;;;;;;;;;5011464;28;20216;-67
2022/11/25 08:12:03;;;;;;;8.32;2.28;;;;;;;;;;5011929;28;20703;-66
2022/11/25 08:14:28;;;;;;;7.68;2.10;;;;;;;;;;5012340;28;20275;-67
2022/11/25 08:16:53;;;;;;;9.80;2.17;;;;;;;;;;4993320;28;20700;-67
2022/11/25 08:19:18;;;;;;;7.78;2.13;;;;;;;;;;4991898;28;20225;-67
2022/11/25 08:21:46;;;;;;;8.27;2.00;;;;;;;;;;4992592;28;20754;-67
2022/11/25 08:24:12;;;;;;;7.75;2.50;;;;;;;;;;4991220;28;20244;-67
2022/11/25 08:26:38;;;;;;;9.55;2.50;;;;;;;;;;4991537;28;20217;-67
2022/11/25 08:29:04;;;;;;;7.00;2.05;;;;;;;;;;4990790;28;20240;-66
2022/11/25 08:31:30;;;;;;;7.25;2.10;;;;;;;;;;4990482;28;20237;-67
2022/11/25 08:33:56;;;;;;;9.02;2.30;;;;;;;;;;4992393;28;20745;-67
2022/11/25 08:36:21;;;;;;;8.40;2.10;;;;;;;;;;4990245;28;20209;-67
2022/11/25 08:38:47;;;;;;;7.25;2.50;;;;;;;;;;4994740;28;20209;-67
2022/11/25 08:41:14;;;;;;;8.90;2.25;;;;;;;;;;4994328;28;20287;-67
2022/11/25 08:43:39;;;;;;;8.15;2.22;;;;;;;;;;4993972;28;20217;-67
2022/11/25 08:46:07;;;;;;;10.50;2.53;;;;;;;;;;5003600;28;20207;-67
2022/11/25 08:48:32;;;;;;;8.25;2.42;;;;;;;;;;5014827;28;20578;-67
2022/11/25 08:50:57;;;;;;;8.10;2.15;;;;;;;;;;4994702;28;20209;-67
2022/11/25 08:53:23;;;;;;;8.13;2.50;;;;;;;;;;4995357;28;20213;-67
2022/11/25 08:55:48;;;;;;;10.93;2.70;;;;;;;;;;4995605;28;20224;-67
2022/11/25 08:58:13;;;;;;;11.57;2.50;;;;;;;;;;4994487;28;20224;-67
2022/11/25 09:00:39;;;;;;;9.70;2.42;;;;;;;;;;4995409;28;20556;-66
2022/11/25 09:03:04;;;;;;;9.50;2.17;;;;;;;;;;4994052;28;20225;-66
2022/11/25 09:05:34;;;;;;;6.63;2.05;;;;;;;;;;4994273;28;20672;-66
2022/11/25 09:08:00;;;;;;;9.40;2.28;;;;;;;;;;4995638;28;20245;-67
2022/11/25 09:10:25;;;;;;;9.27;2.30;;;;;;;;;;4994965;28;20652;-66
2022/11/25 09:12:51;;;;;;;9.85;2.55;;;;;;;;;;4994763;28;20213;-66
2022/11/25 09:15:16;;;;;;;7.90;2.13;;;;;;;;;;4999549;28;20208;-66
2022/11/25 09:17:41;;;;;;;7.90;2.00;;;;;;;;;;5015034;28;20626;-67
2022/11/25 09:20:07;;;;;;;7.72;2.28;;;;;;;;;;5013057;28;20286;-67
2022/11/25 09:22:32;;;;;;;7.70;2.28;;;;;;;;;;5014215;28;20564;-67
2022/11/25 09:24:57;;;;;;;8.15;2.17;;;;;;;;;;5014624;28;20611;-66
2022/11/25 09:27:22;;;;;;;8.50;2.08;;;;;;;;;;5013567;28;20295;-66
2022/11/25 09:29:48;;;;;;;8.98;2.30;;;;;;;;;;5014778;28;20229;-67
2022/11/25 09:32:13;;;;;;;7.82;2.22;;;;;;;;;;5014138;28;20240;-66
2022/11/25 09:34:38;;;;;;;6.40;1.83;;;;;;;;;;5013866;28;20616;-66
2022/11/25 09:37:04;;;;;;;7.85;1.98;;;;;;;;;;5013647;28;20242;-66
2022/11/25 09:39:29;;;;;;;8.07;2.10;;;;;;;;;;5014063;28;20215;-66
2022/11/25 09:47:49;;;;;;;8.27;2.50;;;;;;;;;;4992065;28;20228;-66
2022/11/25 09:50:17;;;;;;;9.32;2.25;;;;;;;;;;4997386;28;20228;-66
2022/11/25 09:53:01;;;;;;;8.52;2.08;;;;;;;;;;4993153;28;20225;-66
2022/11/25 09:55:28;;;;;;;6.03;1.95;;;;;;;;;;4981929;28;20681;-66
2022/11/25 09:57:56;;;;;;;8.65;2.63;;;;;;;;;;4974575;28;20212;-66
2022/11/25 10:00:22;;;;;;;8.43;2.17;;;;;;;;;;4976269;28;20269;-66
2022/11/25 10:02:59;;;;;;;7.50;2.55;;;;;;;;;;4969737;28;20230;-67
2022/11/25 10:05:26;;;;;;;7.00;2.20;;;;;;;;;;4982052;28;20209;-66
2022/11/25 10:07:52;;;;;;;8.05;2.42;;;;;;;;;;4971361;28;20272;-66
2022/11/25 10:10:18;;;;;;;8.27;2.22;;;;;;;;;;4985844;28;20216;-66
2022/11/25 10:12:44;;;;;;;9.65;2.80;;;;;;;;;;4986400;28;20225;-66
2022/11/25 10:15:18;;;;;;;8.40;2.45;;;;;;;;;;4981919;28;20206;-66
2022/11/25 10:17:43;;;;;;;8.77;2.80;;;;;;;;;;4985720;28;20217;-66
2022/11/25 10:20:09;;;;;;;7.50;2.30;;;;;;;;;;4986225;28;20841;-66
2022/11/25 10:22:36;;;;;;;8.20;2.80;;;;;;;;;;4977743;28;20237;-66
2022/11/25 10:25:05;;;;;;;6.78;2.47;;;;;;;;;;4977822;28;20616;-66
2022/11/25 10:27:37;;;;;;;7.60;2.83;;;;;;;;;;4980158;28;20217;-66
2022/11/25 10:30:06;;;;;;;8.43;2.95;;;;;;;;;;4985250;28;20220;-65
2022/11/25 10:32:35;;;;;;;8.18;2.80;;;;;;;;;;4986278;28;20219;-66
2022/11/25 10:35:02;;;;;;;9.57;3.10;;;;;;;;;;4986711;28;20224;-65
2022/11/25 10:37:28;;;;;;;11.15;3.33;;;;;;;;;;4984988;28;20720;-66
2022/11/25 10:39:53;;;;;;;7.38;2.47;;;;;;;;;;4983019;28;20674;-66
2022/11/25 10:42:20;;;;;;;6.78;2.42;;;;;;;;;;4967634;28;20238;-66
2022/11/25 10:44:45;;;;;;;8.30;2.75;;;;;;;;;;4960105;28;20232;-66
2022/11/25 10:47:22;;;;;;;8.10;3.20;;;;;;;;;;4959516;28;20218;-66
2022/11/25 10:49:48;;;;;;;10.93;3.20;;;;;;;;;;4968697;28;20221;-66
2022/11/25 10:52:14;;;;;;;9.40;3.10;;;;;;;;;;4966951;28;20650;-65
2022/11/25 10:54:39;;;;;;;11.70;3.53;;;;;;;;;;4984877;28;20224;-66
2022/11/25 10:57:17;;;;;;;12.00;3.40;;;;;;;;;;4986780;28;20220;-65
2022/11/25 10:59:44;;;;;;;9.70;3.33;;;;;;;;;;4971997;28;20225;-66
2022/11/25 11:02:16;;;;;;;10.70;3.22;;;;;;;;;;4971939;28;20222;-65
2022/11/25 11:05:00;;;;;;;8.52;3.40;;;;;;;;;;4973325;28;20214;-66
2022/11/25 11:07:26;;;;;;;10.15;2.90;;;;;;;;;;4987928;28;20241;-65
2022/11/25 11:09:52;;;;;;;8.32;2.88;;;;;;;;;;4991754;28;20243;-66
2022/11/25 11:12:19;;;;;;;7.38;2.90;;;;;;;;;;4991653;28;20225;-65
2022/11/25 11:14:44;;;;;;;10.88;3.45;;;;;;;;;;4993098;28;20292;-66
2022/11/25 11:17:25;;;;;;;11.93;3.33;;;;;;;;;;4992762;28;20313;-65
2022/11/25 11:20:00;;;;;;;9.30;3.15;;;;;;;;;;4992316;28;20213;-66
2022/11/25 11:22:25;;;;;;;9.82;3.70;;;;;;;;;;5011104;28;20231;-65
2022/11/25 11:25:03;;;;;;;8.63;3.33;;;;;;;;;;5011208;28;20629;-66
2022/11/25 11:27:28;;;;;;;9.30;3.60;;;;;;;;;;5007519;28;20228;-66
2022/11/25 11:30:08;;;;;;;9.52;3.03;;;;;;;;;;4992836;28;20284;-65
2022/11/25 11:32:33;;;;;;;9.05;2.90;;;;;;;;;;4998511;28;20253;-66
2022/11/25 11:35:05;;;;;;;10.70;2.90;;;;;;;;;;4991675;28;20561;-66
2022/11/25 11:37:39;;;;;;;7.88;3.13;;;;;;;;;;4991467;28;20708;-65
2022/11/25 11:40:19;;;;;;;8.57;2.65;;;;;;;;;;4993161;28;20263;-65
2022/11/25 11:43:03;;;;;;;8.95;2.50;;;;;;;;;;5002738;28;20244;-65
2022/11/25 11:45:36;;;;;;;15.50;2.75;;;;;;;;;;5000216;28;20692;-65
2022/11/25 11:48:06;;;;;;;9.30;2.58;;;;;;;;;;4991456;28;20578;-65
2022/11/25 11:50:33;;;;;;;9.85;2.88;;;;;;;;;;4991460;28;20711;-65
2022/11/25 11:53:08;;;;;;;9.30;2.53;;;;;;;;;;4992852;28;20219;-65
2022/11/25 11:55:52;;;;;;;11.70;2.60;;;;;;;;;;4985358;28;20571;-65
2022/11/25 11:58:25;;;;;;;9.73;2.70;;;;;;;;;;5010470;28;20218;-65
2022/11/25 12:00:53;;;;;;;9.27;2.75;;;;;;;;;;5001882;28;20696;-65
2022/11/25 12:03:20;;;;;;;13.82;3.83;;;;;;;;;;5010234;28;20750;-65
2022/11/25 12:05:46;;;;;;;8.30;2.58;;;;;;;;;;4997586;28;20217;-65
2022/11/25 12:08:21;;;;;;;10.40;2.95;;;;;;;;;;4995716;28;20598;-65
2022/11/25 12:10:53;;;;;;;11.40;2.60;;;;;;;;;;4994019;28;20220;-65
2022/11/25 12:13:21;;;;;;;9.02;2.78;;;;;;;;;;4995943;28;20202;-65
2022/11/25 12:15:46;;;;;;;8.55;2.72;;;;;;;;;;5003503;28;20216;-65
2022/11/25 12:18:15;;;;;;;8.77;3.00;;;;;;;;;;5015299;28;20754;-65
2022/11/25 12:20:44;;;;;;;9.98;2.80;;;;;;;;;;5015072;28;20228;-65
2022/11/25 12:23:10;;;;;;;10.07;2.72;;;;;;;;;;5013291;28;20235;-65
2022/11/25 12:25:36;;;;;;;10.30;2.80;;;;;;;;;;5015596;28;20228;-65
2022/11/25 12:28:05;;;;;;;10.93;2.80;;;;;;;;;;5014053;28;20216;-66
2022/11/25 12:30:33;;;;;;;12.07;3.05;;;;;;;;;;5015121;28;20217;-65
2022/11/25 12:33:04;;;;;;;14.00;2.80;;;;;;;;;;5014337;28;20703;-65
2022/11/25 12:35:39;;;;;;;9.70;2.78;;;;;;;;;;5014649;28;20224;-65
2022/11/25 12:38:17;;;;;;;13.60;2.85;;;;;;;;;;5015032;28;20212;-65
2022/11/25 12:40:45;;;;;;;13.80;3.00;;;;;;;;;;4999224;28;20340;-65
2022/11/25 12:43:10;;;;;;;13.68;2.97;;;;;;;;;;4993315;28;20249;-65
2022/11/25 12:45:36;;;;;;;14.07;3.25;;;;;;;;;;5000405;28;20302;-65
2022/11/25 12:48:01;;;;;;;11.55;2.53;;;;;;;;;;5013608;28;20637;-65
2022/11/25 12:50:28;;;;;;;11.27;3.08;;;;;;;;;;5013434;28;20209;-65
2022/11/25 12:52:58;;;;;;;11.40;2.80;;;;;;;;;;5015182;28;20212;-65
2022/11/25 12:55:26;;;;;;;9.85;2.63;;;;;;;;;;5014681;28;20273;-65
2022/11/25 12:58:07;;;;;;;14.20;2.55;;;;;;;;;;5014514;28;20208;-65
2022/11/25 13:00:49;;;;;;;14.23;3.28;;;;;;;;;;5014897;28;20232;-65
2022/11/25 13:03:21;;;;;;;11.48;3.40;;;;;;;;;;5013239;28;20251;-65
2022/11/25 13:06:04;;;;;;;11.95;2.92;;;;;;;;;;5014332;28;20218;-65
2022/11/25 13:08:30;;;;;;;14.30;2.97;;;;;;;;;;5005657;28;20221;-65
2022/11/25 13:10:56;;;;;;;12.57;3.03;;;;;;;;;;4994526;28;20224;-65
2022/11/25 13:13:34;;;;;;;13.95;2.90;;;;;;;;;;4994890;28;20217;-65
2022/11/25 13:16:00;;;;;;;11.98;3.30;;;;;;;;;;5005069;28;20307;-65
2022/11/25 13:18:26;;;;;;;12.35;2.80;;;;;;;;;;5012154;28;20243;-65
2022/11/25 13:20:51;;;;;;;13.80;2.97;;;;;;;;;;5015063;28;20212;-65
2022/11/25 13:23:17;;;;;;;12.23;2.63;;;;;;;;;;5012182;28;20695;-65
2022/11/25 13:25:43;;;;;;;11.80;3.05;;;;;;;;;;5013904;28;20582;-65
2022/11/25 13:28:32;;;;;;;12.07;2.88;;;;;;;;;;5014220;28;20220;-65
2022/11/25 13:31:13;;;;;;;11.70;2.80;;;;;;;;;;5013628;28;20204;-65
2022/11/25 13:33:44;;;;;;;9.75;2.33;;;;;;;;;;5013387;28;20224;-65
2022/11/25 13:36:20;;;;;;;14.27;2.95;;;;;;;;;;5014124;28;20220;-65
2022/11/25 13:38:48;;;;;;;12.35;2.60;;;;;;;;;;5013686;28;20299;-65
2022/11/25 13:41:14;;;;;;;11.13;2.72;;;;;;;;;;4994785;28;20578;-65
2022/11/25 13:43:57;;;;;;;12.73;3.05;;;;;;;;;;4994806;28;20237;-65
2022/11/25 13:46:35;;;;;;;11.55;2.33;;;;;;;;;;5003130;28;20236;-65
2022/11/25 13:49:00;;;;;;;12.38;3.05;;;;;;;;;;5013692;28;20212;-65
2022/11/25 13:51:26;;;;;;;17.08;5.63;;;;;;;;;;5014309;28;20212;-65
2022/11/25 13:53:53;;;;;;;12.65;3.70;;;;;;;;;;5013350;28;20300;-65
2022/11/25 13:56:19;;;;;;;10.70;3.08;;;;;;;;;;5008217;28;20251;-67
2022/11/25 13:59:03;;;;;;;11.20;2.88;;;;;;;;;;5013508;28;20291;-65
2022/11/25 14:01:28;;;;;;;12.57;2.97;;;;;;;;;;5001708;28;20335;-65
2022/11/25 14:03:54;;;;;;;12.07;3.10;;;;;;;;;;5020964;28;20303;-65
2022/11/25 14:06:26;;;;;;;12.52;3.30;;;;;;;;;;4995819;28;20215;-65
2022/11/25 14:08:52;;;;;;;15.50;4.03;;;;;;;;;;5001180;28;20211;-65
2022/11/25 14:11:32;;;;;;;15.38;3.20;;;;;;;;;;5013126;28;20219;-65
2022/11/25 14:14:01;;;;;;;14.40;3.70;;;;;;;;;;5011411;28;20271;-65
2022/11/25 14:16:48;;;;;;;12.23;3.25;;;;;;;;;;4997618;28;20607;-65
2022/11/25 14:19:19;;;;;;;23.48;3.65;;;;;;;;;;4993377;28;20651;-65
2022/11/25 14:21:54;;;;;;;17.40;3.13;;;;;;;;;;4993158;28;20225;-65
2022/11/25 14:24:23;;;;;;;18.85;3.63;;;;;;;;;;4990983;28;20626;-65
2022/11/25 14:26:50;;;;;;;11.27;2.50;;;;;;;;;;5007795;28;20291;-65
2022/11/25 14:29:28;;;;;;;11.35;2.33;;;;;;;;;;5031096;28;20242;-65
2022/11/25 14:31:55;;;;;;;11.60;3.17;;;;;;;;;;5002880;28;20245;-65
2022/11/25 14:34:23;;;;;;;15.73;3.05;;;;;;;;;;4992285;28;20213;-65
2022/11/25 14:36:50;;;;;;;14.85;3.30;;;;;;;;;;4989795;28;20552;-65
2022/11/25 14:39:31;;;;;;;13.68;2.80;;;;;;;;;;5004744;28;20292;-65
2022/11/25 14:41:59;;;;;;;17.85;2.92;;;;;;;;;;5009072;28;20224;-65
2022/11/25 14:44:27;;;;;;;13.93;2.95;;;;;;;;;;5011259;28;20235;-65